Terminal Aerodrome Forecast
Issued by NWS North Platte, NE

Home | Current Version | Previous Version | Text Only | Print | Product List | Glossary On
Versions: 1 2 3 4 5 6 7 8 9 10 11 12 13 14 15 16 17 18 19
000
FTUS43 KLBF 171120
TAFLBF
TAF
KLBF 171120Z 1712/1812 27005KT P6SM SKC
     FM172000 21009KT P6SM SCT200
     FM180000 18008KT P6SM VCTS BKN100CB
     FM180600 22006KT P6SM FEW200
     FM181100 29005KT P6SM FEW200=

USA.gov is the U.S. government's official web portal to all federal, state and local government web resources and services.